createdAt,value
2022-08-03T00:00:23.269Z,60.05
2022-08-03T00:01:23.158Z,60.05
2022-08-03T00:02:23.175Z,60.15
2022-08-03T00:03:23.228Z,60.15
2022-08-03T00:04:23.173Z,60.15
2022-08-03T00:05:23.138Z,60.15
2022-08-03T00:06:23.112Z,60.15
2022-08-03T00:07:23.103Z,60.45
2022-08-03T00:08:23.168Z,60.35
2022-08-03T00:09:23.072Z,60.45
2022-08-03T00:10:23.053Z,60.55
2022-08-03T00:11:23.059Z,60.55
2022-08-03T00:12:23.030Z,60.55
2022-08-03T00:13:23.126Z,60.55
2022-08-03T00:14:23.134Z,60.45
2022-08-03T00:15:23.001Z,60.55
2022-08-03T00:16:23.038Z,60.35
2022-08-03T00:17:23.035Z,60.25
2022-08-03T00:18:23.008Z,60.35
2022-08-03T00:19:22.971Z,60.45
2022-08-03T00:20:22.956Z,60.25
2022-08-03T00:21:22.935Z,60.35
2022-08-03T00:22:22.959Z,60.35
2022-08-03T00:23:22.954Z,60.35
2022-08-03T00:24:22.939Z,60.45
2022-08-03T00:25:22.922Z,60.45
2022-08-03T00:26:22.936Z,60.35
2022-08-03T00:27:22.899Z,60.15
2022-08-03T00:28:22.897Z,60.15
2022-08-03T00:29:22.920Z,59.95
2022-08-03T00:30:22.911Z,59.85
2022-08-03T00:31:39.777Z,59.85
2022-08-03T00:32:24.704Z,59.85
2022-08-03T00:33:22.848Z,59.85
2022-08-03T00:34:29.827Z,60.25
2022-08-03T00:35:31.803Z,60.05
2022-08-03T00:36:22.829Z,60.05
2022-08-03T00:37:22.789Z,60.15
2022-08-03T00:38:22.807Z,60.25
2022-08-03T00:39:22.739Z,60.15
2022-08-03T00:40:22.777Z,60.25
2022-08-03T00:41:22.735Z,60.25
2022-08-03T00:42:22.753Z,60.05
2022-08-03T00:43:22.753Z,59.85
2022-08-03T00:44:22.812Z,59.95
2022-08-03T00:45:22.734Z,60.25
2022-08-03T00:46:22.745Z,60.15
2022-08-03T00:47:22.702Z,60.05
2022-08-03T00:48:33.174Z,60.15
2022-08-03T00:49:22.705Z,60.15
2022-08-03T00:50:22.703Z,60.15
2022-08-03T00:51:22.615Z,60.15
2022-08-03T00:52:22.922Z,60.15
2022-08-03T00:53:22.644Z,60.15
2022-08-03T00:54:22.682Z,60.05
2022-08-03T00:55:22.605Z,60.05
2022-08-03T00:56:22.582Z,59.85
2022-08-03T00:57:22.572Z,59.95
2022-08-03T00:58:22.567Z,59.85
2022-08-03T00:59:22.564Z,59.65
2022-08-03T01:00:22.898Z,59.75
2022-08-03T01:01:22.598Z,59.85
2022-08-03T01:02:22.500Z,59.75
2022-08-03T01:03:22.513Z,59.75
2022-08-03T01:04:22.478Z,59.98
2022-08-03T01:05:22.460Z,60.08
2022-08-03T01:06:22.470Z,59.98
2022-08-03T01:07:22.461Z,60.08
2022-08-03T01:08:22.454Z,60.08
2022-08-03T01:09:22.421Z,60.08
2022-08-03T01:10:22.478Z,60.08
2022-08-03T01:11:22.394Z,60.18
2022-08-03T01:12:22.395Z,60.18
2022-08-03T01:14:02.068Z,60.18
2022-08-03T01:14:22.409Z,60.18
2022-08-03T01:15:22.355Z,60.38
2022-08-03T01:16:22.364Z,60.48
2022-08-03T01:17:22.344Z,60.48
2022-08-03T01:18:22.343Z,60.58
2022-08-03T01:19:22.316Z,60.78
2022-08-03T01:20:22.321Z,60.78
2022-08-03T01:21:22.290Z,60.88
2022-08-03T01:22:22.288Z,60.88
2022-08-03T01:23:22.291Z,60.98
2022-08-03T01:24:22.266Z,60.98
2022-08-03T01:25:22.252Z,61.08
2022-08-03T01:26:22.241Z,61.08
2022-08-03T01:27:22.231Z,60.98
2022-08-03T01:28:22.243Z,61.08
2022-08-03T01:29:22.214Z,61.08
2022-08-03T01:30:22.206Z,61.18
2022-08-03T01:31:22.231Z,61.18
2022-08-03T01:33:02.686Z,61.18
2022-08-03T01:33:22.187Z,61.18
2022-08-03T01:34:22.156Z,61.28
2022-08-03T01:35:22.153Z,61.28
2022-08-03T01:36:22.142Z,61.38
2022-08-03T01:37:22.123Z,61.38
2022-08-03T01:38:22.142Z,61.48
2022-08-03T01:39:22.106Z,61.68
2022-08-03T01:40:22.094Z,61.78
2022-08-03T01:41:22.077Z,61.88
2022-08-03T01:42:22.073Z,61.98
2022-08-03T01:44:27.144Z,62.11
2022-08-03T01:44:34.961Z,62.11
2022-08-03T01:45:22.046Z,62.21
2022-08-03T01:46:22.032Z,62.21
2022-08-03T01:47:22.019Z,62.08
2022-08-03T01:48:22.026Z,62.08
2022-08-03T01:49:22.002Z,62.08
2022-08-03T01:50:21.987Z,62.18
2022-08-03T01:51:21.977Z,62.18
2022-08-03T01:52:21.982Z,62.38
2022-08-03T01:53:21.988Z,62.38
2022-08-03T01:54:21.946Z,62.38
2022-08-03T01:55:21.933Z,62.48
2022-08-03T01:56:21.928Z,62.48
2022-08-03T01:57:21.919Z,62.48
2022-08-03T01:59:32.275Z,62.68
2022-08-03T02:00:33.253Z,62.78
2022-08-03T02:02:29.075Z,62.78
2022-08-03T02:02:39.779Z,62.81
2022-08-03T02:03:33.242Z,62.92
2022-08-03T02:04:33.214Z,63.01
2022-08-03T02:05:33.218Z,62.92
2022-08-03T02:07:02.355Z,62.81
2022-08-03T02:07:33.198Z,62.78
2022-08-03T02:08:33.190Z,62.78
2022-08-03T02:09:33.191Z,62.88
2022-08-03T02:10:35.116Z,62.78
2022-08-03T02:11:33.145Z,62.78
2022-08-03T02:12:33.130Z,62.88
2022-08-03T02:13:33.147Z,62.88
2022-08-03T02:14:33.134Z,62.78
2022-08-03T02:15:33.141Z,62.68
2022-08-03T02:16:33.089Z,62.78
2022-08-03T02:17:38.541Z,62.88
2022-08-03T02:18:33.096Z,62.98
2022-08-03T02:19:35.783Z,63.31
2022-08-03T02:20:33.082Z,63.21
2022-08-03T02:21:56.468Z,63.21
2022-08-03T02:22:33.034Z,63.11
2022-08-03T02:23:33.069Z,63.11
2022-08-03T02:24:33.017Z,63.11
2022-08-03T02:25:33.015Z,63.28
2022-08-03T02:26:32.985Z,63.18
2022-08-03T02:27:32.988Z,63.08
2022-08-03T02:28:32.972Z,62.98
2022-08-03T02:29:39.262Z,62.98
2022-08-03T02:30:32.951Z,62.98
2022-08-03T02:31:32.938Z,62.98
2022-08-03T02:32:32.940Z,62.98
2022-08-03T02:33:32.919Z,62.98
2022-08-03T02:34:33.077Z,63.08
2022-08-03T02:35:32.897Z,63.18
2022-08-03T02:36:32.887Z,63.28
2022-08-03T02:37:32.887Z,63.28
2022-08-03T02:38:32.891Z,63.28
2022-08-03T02:39:32.865Z,63.28
2022-08-03T02:40:32.857Z,63.28
2022-08-03T02:41:32.855Z,63.18
2022-08-03T02:42:32.840Z,63.18
2022-08-03T02:43:39.192Z,63.28
2022-08-03T02:44:32.874Z,63.18
2022-08-03T02:45:32.793Z,63.18
2022-08-03T02:46:32.781Z,63.18
2022-08-03T02:47:53.212Z,63.08
2022-08-03T02:48:32.764Z,62.98
2022-08-03T02:49:51.075Z,62.98
2022-08-03T02:50:32.764Z,62.98
2022-08-03T02:51:32.768Z,63.06
2022-08-03T02:52:32.721Z,63.18
2022-08-03T02:53:32.721Z,63.08
2022-08-03T02:54:32.707Z,63.08
2022-08-03T02:55:32.698Z,63.08
2022-08-03T02:56:32.734Z,63.18
2022-08-03T02:57:32.668Z,63.18
2022-08-03T02:58:32.656Z,63.18
2022-08-03T02:59:32.677Z,63.08
2022-08-03T03:00:32.671Z,63.18
2022-08-03T03:01:32.789Z,63.28
2022-08-03T03:02:32.626Z,63.08
2022-08-03T03:03:35.289Z,62.78
2022-08-03T03:04:33.224Z,62.88
2022-08-03T03:05:53.693Z,63.08
2022-08-03T03:06:32.547Z,63.08
2022-08-03T03:07:39.108Z,63.18
2022-08-03T03:08:32.561Z,62.98
2022-08-03T03:09:41.844Z,62.98
2022-08-03T03:10:32.551Z,63.08
2022-08-03T03:11:32.484Z,63.08
2022-08-03T03:12:32.487Z,63.08
2022-08-03T03:13:32.451Z,63.18
2022-08-03T03:14:33.649Z,63.28
2022-08-03T03:15:32.449Z,63.28
2022-08-03T03:16:32.434Z,63.08
2022-08-03T03:17:32.426Z,63.08
2022-08-03T03:18:32.427Z,63.08
2022-08-03T03:19:32.419Z,63.28
2022-08-03T03:20:32.373Z,63.28
2022-08-03T03:21:32.369Z,63.18
2022-08-03T03:22:32.390Z,62.58
2022-08-03T03:23:32.346Z,62.28
2022-08-03T03:24:32.360Z,62.58
2022-08-03T03:25:32.341Z,62.98
2022-08-03T03:26:32.319Z,62.98
2022-08-03T03:27:32.313Z,62.88
2022-08-03T03:28:32.330Z,63.18
2022-08-03T03:29:32.312Z,62.98
2022-08-03T03:30:32.282Z,63.18
2022-08-03T03:31:32.269Z,63.08
2022-08-03T03:32:32.264Z,63.18
2022-08-03T03:33:32.273Z,63.18
2022-08-03T03:34:32.347Z,63.28
2022-08-03T03:35:38.737Z,63.39
2022-08-03T03:36:32.247Z,63.39
2022-08-03T03:37:32.193Z,63.39
2022-08-03T03:38:32.194Z,63.39
2022-08-03T03:39:32.213Z,63.39
2022-08-03T03:40:32.166Z,63.28
2022-08-03T03:41:33.876Z,63.28
2022-08-03T03:42:32.151Z,63.39
2022-08-03T03:43:32.141Z,63.48
2022-08-03T03:44:32.149Z,63.58
2022-08-03T03:45:32.130Z,63.39
2022-08-03T03:46:32.105Z,63.39
2022-08-03T03:47:32.721Z,63.39
2022-08-03T03:48:32.236Z,63.58
2022-08-03T03:49:32.130Z,63.48
2022-08-03T03:50:32.067Z,63.58
2022-08-03T03:51:32.070Z,63.48
2022-08-03T03:52:32.044Z,63.58
2022-08-03T03:53:32.027Z,63.58
2022-08-03T03:54:32.036Z,63.68
2022-08-03T03:55:32.010Z,63.48
2022-08-03T03:56:32.002Z,63.58
2022-08-03T03:57:31.986Z,63.68
2022-08-03T03:58:32.002Z,63.78
2022-08-03T03:59:31.984Z,63.68
2022-08-03T04:00:31.979Z,63.78
2022-08-03T04:01:31.947Z,63.68
2022-08-03T04:02:32.000Z,63.68
2022-08-03T04:03:31.922Z,63.78
2022-08-03T04:04:31.940Z,63.92
2022-08-03T04:05:31.918Z,64.12
2022-08-03T04:06:31.900Z,64.22
2022-08-03T04:07:31.891Z,64.31
2022-08-03T04:08:31.894Z,64.51
2022-08-03T04:09:31.884Z,64.42
2022-08-03T04:10:31.856Z,64.51
2022-08-03T04:11:32.186Z,64.72
2022-08-03T04:12:31.855Z,64.72
2022-08-03T04:13:31.823Z,64.62
2022-08-03T04:14:31.835Z,64.51
2022-08-03T04:15:31.850Z,64.62
2022-08-03T04:16:31.794Z,64.72
2022-08-03T04:17:31.779Z,64.72
2022-08-03T04:18:31.815Z,64.62
2022-08-03T04:19:31.762Z,64.42
2022-08-03T04:20:31.752Z,64.51
2022-08-03T04:21:31.751Z,64.48
2022-08-03T04:22:31.731Z,64.48
2022-08-03T04:23:31.730Z,64.39
2022-08-03T04:24:31.729Z,64.28
2022-08-03T04:25:31.749Z,64.28
2022-08-03T04:26:31.693Z,64.39
2022-08-03T04:27:31.676Z,64.39
2022-08-03T04:28:32.095Z,64.18
2022-08-03T04:29:31.658Z,64.09
2022-08-03T04:30:31.663Z,64.18
2022-08-03T04:31:31.634Z,64.28
2022-08-03T04:32:31.658Z,64.28
2022-08-03T04:33:32.481Z,64.48
2022-08-03T04:34:31.614Z,64.48
2022-08-03T04:35:54.642Z,64.39
2022-08-03T04:36:31.603Z,64.28
2022-08-03T04:37:31.571Z,64.18
2022-08-03T04:38:31.635Z,64.18
2022-08-03T04:39:31.551Z,63.98
2022-08-03T04:40:31.551Z,63.98
2022-08-03T04:41:31.550Z,63.75
2022-08-03T04:42:31.535Z,63.75
2022-08-03T04:43:31.540Z,63.65
2022-08-03T04:44:31.533Z,63.56
2022-08-03T04:45:31.488Z,63.25
2022-08-03T04:46:31.489Z,63.45
2022-08-03T04:47:31.475Z,63.25
2022-08-03T04:48:31.483Z,63.35
2022-08-03T04:49:31.537Z,63.35
2022-08-03T04:50:31.450Z,63.45
2022-08-03T04:51:31.462Z,63.45
2022-08-03T04:52:31.446Z,63.45
2022-08-03T04:53:31.429Z,63.85
2022-08-03T04:54:31.461Z,63.45
2022-08-03T04:55:31.398Z,63.35
2022-08-03T04:56:31.379Z,63.25
2022-08-03T04:57:31.369Z,63.25
2022-08-03T04:58:31.384Z,63.15
2022-08-03T04:59:31.348Z,63.06
2022-08-03T05:00:31.383Z,62.82
2022-08-03T05:01:31.408Z,62.92
2022-08-03T05:02:31.469Z,62.82
2022-08-03T05:03:31.341Z,62.62
2022-08-03T05:04:31.354Z,62.62
2022-08-03T05:05:48.974Z,62.62
2022-08-03T05:06:31.334Z,62.72
2022-08-03T05:07:34.133Z,62.62
2022-08-03T05:08:31.355Z,62.22
2022-08-03T05:09:50.227Z,62.22
2022-08-03T05:10:31.251Z,62.02
2022-08-03T05:11:31.220Z,61.82
2022-08-03T05:12:32.981Z,61.62
2022-08-03T05:13:31.219Z,61.42
2022-08-03T05:14:31.205Z,61.29
2022-08-03T05:15:31.178Z,61.09
2022-08-03T05:16:31.175Z,61.09
2022-08-03T05:17:31.174Z,60.89
2022-08-03T05:18:31.199Z,61.19
2022-08-03T05:19:31.142Z,60.89
2022-08-03T05:20:31.144Z,60.89
2022-08-03T05:21:50.394Z,60.89
2022-08-03T05:22:31.129Z,60.89
2022-08-03T05:23:31.131Z,60.99
2022-08-03T05:24:31.092Z,60.89
2022-08-03T05:25:31.072Z,60.99
2022-08-03T05:26:31.094Z,60.79
2022-08-03T05:27:31.089Z,60.89
2022-08-03T05:28:31.069Z,60.86
2022-08-03T05:29:31.050Z,60.96
2022-08-03T05:30:34.116Z,60.86
2022-08-03T05:31:31.017Z,60.77
2022-08-03T05:32:31.010Z,60.77
2022-08-03T05:33:31.080Z,60.66
2022-08-03T05:34:30.999Z,60.57
2022-08-03T05:36:01.124Z,60.36
2022-08-03T05:36:30.996Z,59.77
2022-08-03T05:37:31.011Z,60.06
2022-08-03T05:38:35.134Z,59.94
2022-08-03T05:39:30.937Z,59.94
2022-08-03T05:40:30.930Z,60.14
2022-08-03T05:41:37.215Z,59.64
2022-08-03T05:42:30.915Z,59.64
2022-08-03T05:43:30.908Z,59.53
2022-08-03T05:44:30.892Z,59.34
2022-08-03T05:45:30.871Z,57.84
2022-08-03T05:46:31.090Z,58.04
2022-08-03T05:47:30.883Z,58.24
2022-08-03T05:48:30.881Z,58.04
2022-08-03T05:49:30.872Z,58.01
2022-08-03T05:50:30.827Z,57.51
2022-08-03T05:51:30.831Z,57.51
2022-08-03T05:52:30.955Z,58.01
2022-08-03T05:53:30.831Z,57.71
2022-08-03T05:54:55.404Z,56.51
2022-08-03T05:55:31.610Z,56.91
2022-08-03T05:56:30.804Z,57.41
2022-08-03T05:57:30.762Z,56.31
2022-08-03T05:58:30.804Z,56.41
2022-08-03T05:59:38.758Z,56.38
2022-08-03T06:00:30.788Z,56.48
2022-08-03T06:01:30.786Z,56.29
2022-08-03T06:02:30.707Z,55.88
2022-08-03T06:03:30.695Z,55.49
2022-08-03T06:04:31.137Z,55.58
2022-08-03T06:05:30.678Z,55.69
2022-08-03T06:06:32.394Z,55.88
2022-08-03T06:07:30.742Z,55.19
2022-08-03T06:08:30.652Z,55.69
2022-08-03T06:10:33.245Z,55.66
2022-08-03T06:10:42.326Z,55.76
2022-08-03T06:11:30.614Z,55.66
2022-08-03T06:12:30.605Z,55.96
2022-08-03T06:13:30.623Z,56.16
2022-08-03T06:14:30.606Z,55.96
2022-08-03T06:15:30.575Z,56.06
2022-08-03T06:16:30.567Z,55.96
2022-08-03T06:17:30.557Z,55.96
2022-08-03T06:18:30.570Z,55.66
2022-08-03T06:19:30.562Z,55.73
2022-08-03T06:20:30.553Z,55.73
2022-08-03T06:21:30.525Z,55.63
2022-08-03T06:22:30.504Z,55.83
2022-08-03T06:23:53.873Z,55.24
2022-08-03T06:24:30.521Z,54.44
2022-08-03T06:25:30.480Z,55.13
2022-08-03T06:26:31.038Z,54.94
2022-08-03T06:27:37.189Z,54.83
2022-08-03T06:28:52.615Z,54.64
2022-08-03T06:29:30.445Z,55.04
2022-08-03T06:30:30.415Z,55.31
2022-08-03T06:31:32.916Z,55.11
2022-08-03T06:32:30.388Z,55.41
2022-08-03T06:34:30.721Z,54.91
2022-08-03T06:34:40.135Z,55.11
2022-08-03T06:35:30.373Z,54.01
2022-08-03T06:36:30.373Z,54.31
2022-08-03T06:37:30.355Z,53.81
2022-08-03T06:38:30.343Z,52.09
2022-08-03T06:39:30.341Z,52.99
2022-08-03T06:40:30.338Z,53.49
2022-08-03T06:41:30.314Z,53.29
2022-08-03T06:42:30.295Z,52.99
2022-08-03T06:43:30.322Z,52.69
2022-08-03T06:44:30.300Z,53.19
2022-08-03T06:45:31.762Z,52.76
2022-08-03T06:46:30.291Z,52.47
2022-08-03T06:47:30.252Z,52.97
2022-08-03T06:48:30.234Z,52.97
2022-08-03T06:49:30.308Z,52.86
2022-08-03T06:50:30.222Z,52.86
2022-08-03T06:52:03.405Z,52.86
2022-08-03T06:52:37.204Z,52.27
2022-08-03T06:53:30.230Z,52.24
2022-08-03T06:54:32.840Z,51.95
2022-08-03T06:55:30.160Z,52.14
2022-08-03T06:56:30.148Z,52.14
2022-08-03T06:57:30.154Z,51.95
2022-08-03T06:58:30.126Z,51.65
2022-08-03T07:00:10.871Z,51.65
2022-08-03T07:00:30.159Z,51.84
2022-08-03T07:01:30.156Z,51.82
2022-08-03T07:02:30.085Z,51.52
2022-08-03T07:03:30.086Z,51.03
2022-08-03T07:04:30.093Z,50.03
2022-08-03T07:05:30.060Z,50.50
2022-08-03T07:06:30.097Z,50.90
2022-08-03T07:07:30.058Z,50.70
2022-08-03T07:08:33.357Z,49.91
2022-08-03T07:09:30.055Z,49.71
2022-08-03T07:10:30.029Z,49.78
2022-08-03T07:11:30.000Z,49.38
2022-08-03T07:12:29.988Z,49.78
2022-08-03T07:13:29.987Z,48.86
2022-08-03T07:14:30.011Z,49.66
2022-08-03T07:15:38.418Z,48.66
2022-08-03T07:16:29.976Z,48.17
2022-08-03T07:17:29.937Z,48.65
2022-08-03T07:18:30.206Z,49.14
2022-08-03T07:19:29.956Z,49.44
2022-08-03T07:20:32.593Z,49.44
2022-08-03T07:21:29.902Z,49.04
2022-08-03T07:22:29.886Z,48.14
2022-08-03T07:23:29.923Z,48.84
2022-08-03T07:24:29.926Z,49.14
2022-08-03T07:25:29.866Z,49.14
2022-08-03T07:26:29.896Z,49.24
2022-08-03T07:27:29.861Z,48.35
2022-08-03T07:28:29.826Z,48.62
2022-08-03T07:29:29.884Z,47.73
2022-08-03T07:30:29.817Z,47.53
2022-08-03T07:31:34.375Z,47.92
2022-08-03T07:32:29.800Z,47.63
2022-08-03T07:33:29.843Z,47.21
2022-08-03T07:34:29.777Z,47.11
2022-08-03T07:35:29.788Z,47.21
2022-08-03T07:36:29.738Z,47.58
2022-08-03T07:37:29.744Z,47.49
2022-08-03T07:38:29.765Z,47.78
2022-08-03T07:39:29.777Z,47.68
2022-08-03T07:40:30.652Z,47.88
2022-08-03T07:41:29.767Z,47.68
2022-08-03T07:42:29.742Z,48.18
2022-08-03T07:43:29.709Z,48.45
2022-08-03T07:44:29.683Z,46.17
2022-08-03T07:45:29.653Z,46.37
2022-08-03T07:46:29.754Z,47.26
2022-08-03T07:47:35.371Z,45.18
2022-08-03T07:48:29.630Z,45.56
2022-08-03T07:49:29.758Z,44.56
2022-08-03T07:50:29.598Z,44.94
2022-08-03T07:51:29.621Z,44.32
2022-08-03T07:52:29.626Z,45.01
2022-08-03T07:53:29.591Z,44.20
2022-08-03T07:54:29.583Z,44.09
2022-08-03T07:55:29.557Z,44.43
2022-08-03T07:56:29.566Z,43.70
2022-08-03T07:57:29.545Z,42.38
2022-08-03T07:58:29.523Z,42.04
2022-08-03T07:59:56.384Z,40.33
2022-08-03T08:00:32.244Z,40.29
2022-08-03T08:01:29.542Z,37.80
2022-08-03T08:02:29.491Z,37.05
2022-08-03T08:03:29.471Z,36.82
2022-08-03T08:04:29.492Z,34.84
2022-08-03T08:05:29.456Z,35.03
2022-08-03T08:06:29.434Z,34.23
2022-08-03T08:07:29.440Z,33.34
2022-08-03T08:08:29.433Z,33.72
2022-08-03T08:09:29.427Z,34.19
2022-08-03T08:10:29.395Z,33.67
2022-08-03T08:11:29.398Z,32.68
2022-08-03T08:12:29.374Z,32.84
2022-08-03T08:13:29.389Z,32.05
2022-08-03T08:14:29.381Z,31.66
2022-08-03T08:15:29.357Z,31.73
2022-08-03T08:16:29.344Z,31.43
2022-08-03T08:17:29.341Z,31.03
2022-08-03T08:18:29.331Z,30.91
2022-08-03T08:19:29.321Z,31.11
2022-08-03T08:20:31.397Z,30.32
2022-08-03T08:21:53.946Z,29.88
2022-08-03T08:22:30.446Z,30.60
2022-08-03T08:23:38.166Z,30.98
2022-08-03T08:24:29.281Z,31.25
2022-08-03T08:25:29.256Z,29.96
2022-08-03T08:26:30.226Z,30.82
2022-08-03T08:28:29.372Z,30.52
2022-08-03T08:28:36.544Z,29.91
2022-08-03T08:29:29.243Z,29.61
2022-08-03T08:30:29.278Z,29.43
2022-08-03T08:31:29.213Z,29.62
2022-08-03T08:32:29.192Z,30.14
2022-08-03T08:33:42.156Z,30.55
2022-08-03T08:34:29.189Z,31.01
2022-08-03T08:35:29.168Z,32.42
2022-08-03T08:36:29.169Z,33.05
2022-08-03T08:37:29.152Z,33.80
2022-08-03T08:38:29.133Z,35.11
2022-08-03T08:39:29.203Z,34.93
2022-08-03T08:40:29.118Z,35.36
2022-08-03T08:41:32.374Z,36.46
2022-08-03T08:42:29.101Z,36.87
2022-08-03T08:43:29.096Z,37.57
2022-08-03T08:44:29.100Z,38.87
2022-08-03T08:45:29.080Z,38.99
2022-08-03T08:46:29.065Z,38.81
2022-08-03T08:47:29.063Z,38.34
2022-08-03T08:48:29.044Z,40.01
2022-08-03T08:49:29.148Z,39.03
2022-08-03T08:50:29.074Z,40.33
2022-08-03T08:51:54.440Z,40.62
2022-08-03T08:52:31.813Z,38.45
2022-08-03T08:53:29.011Z,39.36
2022-08-03T08:54:29.015Z,41.14
2022-08-03T08:55:29.033Z,41.41
2022-08-03T08:56:28.990Z,38.57
2022-08-03T08:57:42.455Z,40.64
2022-08-03T08:58:28.951Z,41.73
2022-08-03T08:59:48.288Z,42.02
2022-08-03T09:00:28.964Z,41.14
2022-08-03T09:01:29.026Z,41.43
2022-08-03T09:02:28.906Z,37.70
2022-08-03T09:03:30.167Z,38.59
2022-08-03T09:04:28.895Z,38.49
2022-08-03T09:05:53.933Z,38.59
2022-08-03T09:06:28.872Z,37.98
2022-08-03T09:07:28.854Z,39.56
2022-08-03T09:08:28.843Z,38.39
2022-08-03T09:10:10.162Z,39.38
2022-08-03T09:10:28.826Z,37.90
2022-08-03T09:11:52.458Z,40.66
2022-08-03T09:12:41.515Z,39.87
2022-08-03T09:13:28.805Z,42.83
2022-08-03T09:14:35.228Z,42.34
2022-08-03T09:15:28.874Z,41.75
2022-08-03T09:16:28.764Z,43.03
2022-08-03T09:17:28.764Z,39.99
2022-08-03T09:18:32.218Z,40.19
2022-08-03T09:19:28.869Z,40.29
2022-08-03T09:20:28.729Z,41.75
2022-08-03T09:21:33.144Z,39.48
2022-08-03T09:22:28.702Z,40.47
2022-08-03T09:23:59.156Z,41.28
2022-08-03T09:24:41.118Z,40.09
2022-08-03T09:25:28.723Z,39.50
2022-08-03T09:26:28.667Z,39.78
2022-08-03T09:27:28.663Z,41.75
2022-08-03T09:28:59.704Z,43.03
2022-08-03T09:29:28.663Z,40.66
2022-08-03T09:30:34.459Z,41.75
2022-08-03T09:31:28.620Z,41.77
2022-08-03T09:32:28.607Z,41.67
2022-08-03T09:33:35.954Z,40.69
2022-08-03T09:34:28.617Z,41.06
2022-08-03T09:35:51.699Z,43.03
2022-08-03T09:36:28.570Z,42.83
2022-08-03T09:38:11.978Z,42.76
2022-08-03T09:38:28.570Z,41.87
2022-08-03T09:39:42.057Z,41.77
2022-08-03T09:40:28.528Z,42.26
2022-08-03T09:41:28.517Z,42.96
2022-08-03T09:42:28.510Z,42.36
2022-08-03T09:43:28.546Z,42.07
2022-08-03T09:44:28.505Z,41.57
2022-08-03T09:45:28.491Z,42.44
2022-08-03T09:46:28.462Z,41.67
2022-08-03T09:47:28.543Z,42.46
2022-08-03T09:48:28.446Z,40.58
2022-08-03T09:49:28.539Z,40.96
2022-08-03T09:50:28.424Z,39.18
2022-08-03T09:52:30.089Z,41.33
2022-08-03T09:52:51.865Z,40.55
2022-08-03T09:53:28.414Z,40.05
2022-08-03T09:54:28.403Z,39.17
2022-08-03T09:56:34.644Z,38.87
2022-08-03T09:56:41.471Z,39.26
2022-08-03T09:57:28.365Z,39.34
2022-08-03T09:58:28.338Z,38.95
2022-08-03T09:59:28.379Z,39.15
2022-08-03T10:00:28.324Z,38.85
2022-08-03T10:01:28.362Z,39.64
2022-08-03T10:02:28.311Z,39.73
2022-08-03T10:03:28.293Z,38.95
2022-08-03T10:04:28.293Z,39.84
2022-08-03T10:05:28.301Z,41.02
2022-08-03T10:06:29.099Z,38.47
2022-08-03T10:07:28.262Z,38.75
2022-08-03T10:08:28.248Z,38.26
2022-08-03T10:09:28.256Z,39.25
2022-08-03T10:10:30.916Z,39.94
2022-08-03T10:11:28.216Z,39.26
2022-08-03T10:12:28.208Z,38.57
2022-08-03T10:13:28.200Z,38.77
2022-08-03T10:14:28.218Z,38.56
2022-08-03T10:16:23.556Z,39.34
2022-08-03T10:16:29.995Z,39.04
2022-08-03T10:17:28.158Z,40.03
2022-08-03T10:18:28.161Z,37.87
2022-08-03T10:19:28.157Z,37.87
2022-08-03T10:20:28.124Z,38.65
2022-08-03T10:21:28.113Z,40.72
2022-08-03T10:22:28.109Z,40.53
2022-08-03T10:23:31.868Z,41.04
2022-08-03T10:24:28.112Z,40.35
2022-08-03T10:25:33.256Z,39.46
2022-08-03T10:26:28.071Z,38.77
2022-08-03T10:27:28.067Z,38.77
2022-08-03T10:28:28.045Z,40.23
2022-08-03T10:29:28.067Z,40.03
2022-08-03T10:30:28.028Z,40.05
2022-08-03T10:31:28.032Z,39.86
2022-08-03T10:32:28.025Z,40.64
2022-08-03T10:33:51.887Z,39.76
2022-08-03T10:34:28.012Z,42.22
2022-08-03T10:35:28.209Z,42.61
2022-08-03T10:36:28.206Z,42.54
2022-08-03T10:37:27.971Z,40.17
2022-08-03T10:38:27.949Z,43.21
2022-08-03T10:39:27.947Z,43.23
2022-08-03T10:41:27.917Z,42.44
2022-08-03T10:42:27.914Z,42.64
2022-08-03T10:43:27.898Z,42.14
2022-08-03T10:44:27.908Z,40.37
2022-08-03T10:45:27.875Z,39.18
2022-08-03T10:46:27.871Z,39.17
2022-08-03T10:47:27.855Z,38.47
2022-08-03T10:48:27.877Z,38.75
2022-08-03T10:49:34.667Z,38.16
2022-08-03T10:50:27.842Z,37.95
2022-08-03T10:51:27.809Z,37.65
2022-08-03T10:52:32.822Z,37.65
2022-08-03T10:53:27.819Z,37.55
2022-08-03T10:54:27.792Z,37.53
2022-08-03T10:55:27.776Z,37.83
2022-08-03T10:56:48.051Z,37.53
2022-08-03T10:57:27.754Z,38.32
2022-08-03T10:58:30.612Z,37.53
2022-08-03T10:59:28.283Z,37.32
2022-08-03T11:00:27.946Z,37.12
2022-08-03T11:01:27.710Z,37.01
2022-08-03T11:02:27.711Z,36.40
2022-08-03T11:03:27.705Z,36.49
2022-08-03T11:04:27.684Z,36.69
2022-08-03T11:05:27.670Z,36.40
2022-08-03T11:06:27.665Z,36.61
2022-08-03T11:07:27.662Z,37.10
2022-08-03T11:08:27.664Z,36.90
2022-08-03T11:09:27.634Z,37.30
2022-08-03T11:10:27.625Z,37.20
2022-08-03T11:11:27.609Z,37.01
2022-08-03T11:12:31.215Z,36.72
2022-08-03T11:13:27.604Z,37.22
2022-08-03T11:14:27.614Z,36.63
2022-08-03T11:15:27.565Z,37.02
2022-08-03T11:16:27.586Z,37.41
2022-08-03T11:17:27.547Z,36.71
2022-08-03T11:18:27.568Z,36.32
2022-08-03T11:19:27.687Z,36.61
2022-08-03T11:20:27.529Z,36.49
2022-08-03T11:21:30.354Z,36.49
2022-08-03T11:22:27.502Z,36.08
2022-08-03T11:24:03.941Z,36.47
2022-08-03T11:24:27.490Z,35.78
2022-08-03T11:25:53.801Z,35.39
2022-08-03T11:26:27.475Z,35.49
2022-08-03T11:27:27.451Z,35.88
2022-08-03T11:28:27.443Z,36.28
2022-08-03T11:29:27.472Z,36.57
2022-08-03T11:30:27.688Z,35.99
2022-08-03T11:31:48.732Z,35.99
2022-08-03T11:32:27.414Z,36.57
2022-08-03T11:33:27.393Z,36.77
2022-08-03T11:34:27.416Z,36.87
2022-08-03T11:35:27.371Z,36.30
2022-08-03T11:36:32.307Z,36.88
2022-08-03T11:37:31.497Z,37.08
2022-08-03T11:38:27.355Z,37.18
2022-08-03T11:39:27.364Z,37.08
2022-08-03T11:40:27.323Z,36.59
2022-08-03T11:41:27.313Z,36.08
2022-08-03T11:42:27.305Z,36.28
2022-08-03T11:43:30.842Z,36.47
2022-08-03T11:44:27.307Z,36.47
2022-08-03T11:45:27.265Z,36.18
2022-08-03T11:46:28.408Z,36.18
2022-08-03T11:47:27.245Z,35.77
2022-08-03T11:48:27.240Z,35.28
2022-08-03T11:49:27.300Z,36.05
2022-08-03T11:50:27.234Z,35.85
2022-08-03T11:51:27.203Z,35.75
2022-08-03T11:52:28.739Z,35.66
2022-08-03T11:53:27.191Z,35.46
2022-08-03T11:54:27.199Z,35.66
2022-08-03T11:55:30.559Z,35.55
2022-08-03T11:56:27.162Z,35.57
2022-08-03T11:59:18.963Z,35.47
2022-08-03T11:59:25.636Z,35.67
2022-08-03T11:59:30.645Z,36.05
2022-08-03T12:00:30.654Z,36.24
2022-08-03T12:01:30.626Z,35.95
2022-08-03T12:02:30.627Z,35.87
2022-08-03T12:03:30.658Z,36.26
2022-08-03T12:04:30.623Z,35.87
2022-08-03T12:05:30.590Z,36.07
2022-08-03T12:06:30.585Z,36.26
2022-08-03T12:08:04.210Z,36.65
2022-08-03T12:08:31.075Z,35.66
2022-08-03T12:09:30.566Z,36.15
2022-08-03T12:10:30.547Z,35.66
2022-08-03T12:11:30.525Z,35.66
2022-08-03T12:12:30.526Z,35.75
2022-08-03T12:14:44.470Z,36.05
2022-08-03T12:14:54.189Z,35.85
2022-08-03T12:15:30.484Z,35.46
2022-08-03T12:16:30.478Z,36.03
2022-08-03T12:17:30.468Z,35.74
2022-08-03T12:18:30.461Z,35.74
2022-08-03T12:19:30.458Z,36.22
2022-08-03T12:20:34.555Z,35.93
2022-08-03T12:21:30.427Z,35.74
2022-08-03T12:22:30.417Z,35.93
2022-08-03T12:23:30.885Z,36.13
2022-08-03T12:24:30.413Z,35.24
2022-08-03T12:25:38.827Z,36.03
2022-08-03T12:26:30.414Z,35.34
2022-08-03T12:27:30.364Z,36.13
2022-08-03T12:28:37.763Z,35.42
2022-08-03T12:29:30.370Z,34.83
2022-08-03T12:30:30.342Z,35.52
2022-08-03T12:31:30.323Z,35.72
2022-08-03T12:32:30.328Z,35.50
2022-08-03T12:33:30.305Z,35.70
2022-08-03T12:34:30.943Z,35.11
2022-08-03T12:35:30.284Z,35.60
2022-08-03T12:36:30.285Z,35.70
2022-08-03T12:37:30.568Z,35.41
2022-08-03T12:38:30.260Z,35.19
2022-08-03T12:39:31.507Z,35.39
2022-08-03T12:40:31.892Z,34.70
2022-08-03T12:41:30.228Z,34.78
2022-08-03T12:42:30.249Z,34.57
2022-08-03T12:43:30.204Z,34.08
2022-08-03T12:44:30.223Z,33.58
2022-08-03T12:45:30.182Z,33.56
2022-08-03T12:46:30.207Z,32.87
2022-08-03T12:47:30.164Z,33.53
2022-08-03T12:48:30.164Z,33.14
2022-08-03T12:49:30.440Z,32.73
2022-08-03T12:50:31.496Z,32.55
2022-08-03T12:51:30.126Z,32.73
2022-08-03T12:52:30.121Z,32.73
2022-08-03T12:53:30.136Z,32.75
2022-08-03T12:54:30.115Z,33.14